Time;durP1;ratioP1;P1;durP2;ratioP2;P2;SDS_P1;SDS_P2;PMS_P1;PMS_P2;Temp;Humidity;BMP_temperature;BMP_pressure;BME280_temperature;BME280_humidity;BME280_pressure;Samples;Min_cycle;Max_cycle;Signal;HPM_P1;HPM_P2
2022/12/03 00:02:14;;;;;;;51.78;19.10;;;;;;;2.23;100.00;101996.09;4994423;28;20052;-77
2022/12/03 00:04:40;;;;;;;57.72;20.08;;;;;;;2.24;100.00;101994.28;4982063;28;20054;-77
2022/12/03 00:07:05;;;;;;;48.20;18.08;;;;;;;2.17;100.00;101991.72;4981542;28;20053;-77
2022/12/03 00:09:31;;;;;;;44.50;17.83;;;;;;;2.29;100.00;101985.09;4983169;28;20080;-76
2022/12/03 00:11:56;;;;;;;46.83;19.40;;;;;;;2.27;100.00;101991.50;5026404;28;20396;-77
2022/12/03 00:14:21;;;;;;;47.25;18.55;;;;;;;2.16;100.00;101995.34;5002433;28;20029;-77
2022/12/03 00:16:47;;;;;;;52.65;19.48;;;;;;;2.20;100.00;101980.84;4996817;28;20092;-77
2022/12/03 00:19:12;;;;;;;48.50;17.77;;;;;;;2.22;100.00;101988.03;4983112;28;20115;-77
2022/12/03 00:21:38;;;;;;;51.38;18.05;;;;;;;2.24;100.00;101986.16;4997834;28;20120;-77
2022/12/03 00:24:03;;;;;;;51.97;19.08;;;;;;;2.29;100.00;101995.03;4978947;28;20030;-77
2022/12/03 00:26:29;;;;;;;51.40;18.95;;;;;;;2.33;100.00;101986.81;4996798;28;20033;-77
2022/12/03 00:28:56;;;;;;;58.53;19.80;;;;;;;2.22;100.00;101988.03;5016728;28;20037;-77
2022/12/03 00:31:23;;;;;;;54.80;20.00;;;;;;;2.24;100.00;101972.66;4983560;28;20057;-77
2022/12/03 00:33:49;;;;;;;52.22;19.02;;;;;;;2.19;100.00;101967.38;4999836;28;20030;-77
2022/12/03 00:36:15;;;;;;;50.45;18.58;;;;;;;2.28;100.00;101972.53;4994826;28;20058;-77
2022/12/03 00:38:41;;;;;;;49.13;18.45;;;;;;;2.24;100.00;101969.94;4993633;28;20057;-77
2022/12/03 00:41:06;;;;;;;48.33;17.23;;;;;;;2.17;100.00;101964.69;4991249;28;20041;-77
2022/12/03 00:43:32;;;;;;;45.05;17.65;;;;;;;2.29;100.00;101959.91;4999985;28;20053;-77
2022/12/03 00:45:57;;;;;;;55.50;19.50;;;;;;;2.24;100.00;101965.41;5004572;28;20072;-77
2022/12/03 00:48:23;;;;;;;57.35;19.65;;;;;;;2.19;100.00;101967.38;4978690;28;20040;-78
2022/12/03 00:50:48;;;;;;;48.25;17.95;;;;;;;2.19;100.00;101956.56;4985490;28;20054;-77
2022/12/03 00:53:14;;;;;;;52.75;19.33;;;;;;;2.17;100.00;101959.31;4993950;28;20030;-77
2022/12/03 00:55:39;;;;;;;49.42;18.88;;;;;;;2.21;100.00;101962.78;5002340;28;20038;-77
2022/12/03 00:58:07;;;;;;;47.92;19.02;;;;;;;2.26;100.00;101962.69;5003094;28;20065;-76
2022/12/03 01:00:32;;;;;;;54.22;19.77;;;;;;;2.24;100.00;101969.94;5016548;28;20089;-78
2022/12/03 01:02:58;;;;;;;53.42;19.95;;;;;;;2.33;100.00;101970.59;5021669;28;20064;-76
2022/12/03 01:05:23;;;;;;;49.45;18.58;;;;;;;2.23;100.00;101957.34;5004212;28;20037;-78
2022/12/03 01:07:49;;;;;;;55.38;20.13;;;;;;;2.26;100.00;101966.25;5004598;28;20041;-77
2022/12/03 01:10:14;;;;;;;50.63;21.02;;;;;;;2.28;100.00;101977.94;5008412;28;20096;-77
2022/12/03 01:12:40;;;;;;;55.22;21.05;;;;;;;2.32;100.00;101968.81;5000902;28;20448;-78
2022/12/03 01:15:06;;;;;;;50.10;19.08;;;;;;;2.27;100.00;101973.44;5000287;28;20026;-76
2022/12/03 01:17:32;;;;;;;49.33;19.25;;;;;;;2.34;100.00;101969.66;5001277;28;20168;-77
2022/12/03 01:19:58;;;;;;;48.50;17.38;;;;;;;2.36;100.00;101975.91;5002529;28;20064;-77
2022/12/03 01:22:24;;;;;;;51.95;19.95;;;;;;;2.41;100.00;101973.09;4989785;28;20159;-77
2022/12/03 01:24:49;;;;;;;50.28;19.58;;;;;;;2.28;100.00;101969.84;5005118;28;20037;-77
2022/12/03 01:27:15;;;;;;;53.45;20.17;;;;;;;2.32;100.00;101978.75;4969639;28;20045;-77
2022/12/03 01:29:41;;;;;;;55.85;21.10;;;;;;;2.28;100.00;101977.03;4999870;28;20068;-77
2022/12/03 01:32:18;;;;;;;50.95;18.83;;;;;;;2.32;100.00;101974.22;4994422;28;20033;-77
2022/12/03 01:34:52;;;;;;;55.00;20.35;;;;;;;2.27;100.00;101962.66;5026373;28;20025;-76
2022/12/03 01:37:18;;;;;;;56.50;21.85;;;;;;;2.28;100.00;101972.53;5038412;28;20489;-77
2022/12/03 01:39:44;;;;;;;57.17;20.48;;;;;;;2.31;100.00;101967.06;4984625;28;20105;-77
2022/12/03 01:42:23;;;;;;;56.30;20.40;;;;;;;2.31;100.00;101979.66;5019532;28;20099;-77
2022/12/03 01:44:52;;;;;;;48.78;19.27;;;;;;;2.32;100.00;101968.81;5032900;28;20029;-77
2022/12/03 01:47:21;;;;;;;55.78;20.85;;;;;;;2.29;100.00;101962.59;5006317;28;20036;-77
2022/12/03 01:50:02;;;;;;;55.72;20.15;;;;;;;2.31;100.00;101963.44;5014219;28;20065;-77
2022/12/03 01:52:32;;;;;;;56.20;21.38;;;;;;;2.29;100.00;101960.78;5000759;28;20029;-78
2022/12/03 01:55:00;;;;;;;49.83;18.45;;;;;;;2.31;100.00;101966.16;5026536;28;20030;-77
2022/12/03 01:57:31;;;;;;;53.63;21.75;;;;;;;2.32;100.00;101963.41;5013467;28;20033;-77
2022/12/03 01:59:59;;;;;;;55.97;21.50;;;;;;;2.16;100.00;101956.63;5032597;28;21896;-77
2022/12/03 02:02:30;;;;;;;62.55;21.17;;;;;;;2.18;100.00;101955.69;5018409;28;20573;-77
2022/12/03 02:04:56;;;;;;;49.45;20.73;;;;;;;2.17;100.00;101951.19;5008703;28;20029;-78
2022/12/03 02:07:24;;;;;;;52.65;21.20;;;;;;;2.16;100.00;101956.63;4998523;28;20117;-77
2022/12/03 02:09:50;;;;;;;52.42;20.85;;;;;;;2.11;100.00;101953.16;4996723;28;20079;-77
2022/12/03 02:12:18;;;;;;;57.03;20.75;;;;;;;2.19;100.00;101952.03;5003857;28;20037;-77
2022/12/03 02:14:44;;;;;;;61.45;22.92;;;;;;;2.09;100.00;101949.63;5007083;28;20108;-77
2022/12/03 02:17:11;;;;;;;57.20;21.17;;;;;;;2.15;100.00;101952.19;5002850;28;20038;-77
2022/12/03 02:19:37;;;;;;;61.85;21.63;;;;;;;2.11;100.00;101955.88;4985412;28;20037;-77
2022/12/03 02:22:33;;;;;;;66.80;20.08;;;;;;;2.16;100.00;101954.81;5002826;28;20482;-77
2022/12/03 02:25:23;;;;;;;58.47;21.83;;;;;;;2.16;100.00;101956.63;5015543;28;20033;-77
2022/12/03 02:27:49;;;;;;;59.78;21.25;;;;;;;2.05;100.00;101954.22;4996775;28;20430;-77
2022/12/03 02:30:18;;;;;;;60.85;21.75;;;;;;;2.07;100.00;101948.78;4985254;28;20383;-77
2022/12/03 02:32:44;;;;;;;60.47;20.70;;;;;;;2.07;100.00;101949.66;5014661;28;20076;-77
2022/12/03 02:35:18;;;;;;;56.53;21.17;;;;;;;2.17;100.00;101945.78;4979349;28;20038;-77
2022/12/03 02:37:46;;;;;;;62.72;22.15;;;;;;;2.14;100.00;101945.00;5014286;28;20049;-77
2022/12/03 02:40:18;;;;;;;67.55;22.50;;;;;;;2.16;100.00;101946.69;4985981;28;20029;-77
2022/12/03 02:42:44;;;;;;;55.17;21.25;;;;;;;2.16;100.00;101951.22;4994219;28;20026;-77
2022/12/03 02:45:16;;;;;;;53.72;20.48;;;;;;;2.14;100.00;101943.16;5000679;28;20037;-77
2022/12/03 02:47:45;;;;;;;53.03;21.15;;;;;;;2.15;100.00;101949.47;4996076;28;20098;-77
2022/12/03 02:50:16;;;;;;;57.75;20.60;;;;;;;2.06;100.00;101942.47;5012390;28;20033;-77
2022/12/03 02:52:45;;;;;;;60.97;22.48;;;;;;;2.12;100.00;101936.94;4988473;28;20033;-77
2022/12/03 02:55:12;;;;;;;61.85;22.48;;;;;;;2.03;100.00;101926.34;4999161;28;20069;-77
2022/12/03 02:57:39;;;;;;;61.45;22.40;;;;;;;2.05;100.00;101929.00;5007851;28;20030;-77
2022/12/03 03:00:07;;;;;;;58.80;21.42;;;;;;;2.02;100.00;101927.28;5001325;28;20049;-77
2022/12/03 03:02:33;;;;;;;58.67;23.15;;;;;;;2.14;100.00;101931.47;4999284;28;20025;-77
2022/12/03 03:04:59;;;;;;;56.65;21.48;;;;;;;2.15;100.00;101930.56;4991058;28;20056;-77
2022/12/03 03:07:25;;;;;;;59.25;22.55;;;;;;;2.14;100.00;101934.19;4991503;28;20493;-77
2022/12/03 03:09:51;;;;;;;64.95;23.95;;;;;;;2.18;100.00;101933.16;5019312;28;20048;-77
2022/12/03 03:12:16;;;;;;;62.58;23.98;;;;;;;2.11;100.00;101920.75;4979374;28;20061;-77
2022/12/03 03:14:42;;;;;;;68.95;24.50;;;;;;;2.07;100.00;101925.34;4982778;28;20137;-77
2022/12/03 03:17:07;;;;;;;62.55;22.60;;;;;;;2.09;100.00;101914.50;4966878;28;20061;-77
2022/12/03 03:19:33;;;;;;;59.80;23.35;;;;;;;2.13;100.00;101924.28;4976097;28;20034;-77
2022/12/03 03:21:58;;;;;;;59.95;22.20;;;;;;;1.99;100.00;101927.38;5000946;28;20105;-77
2022/12/03 03:24:25;;;;;;;72.50;23.73;;;;;;;1.99;100.00;101914.75;5030283;28;20095;-77
2022/12/03 03:26:50;;;;;;;66.85;23.27;;;;;;;2.06;100.00;101922.69;5017862;28;20052;-77
2022/12/03 03:29:16;;;;;;;61.88;22.67;;;;;;;2.06;100.00;101915.47;4972195;28;20065;-77
2022/12/03 03:31:43;;;;;;;64.75;23.63;;;;;;;2.14;100.00;101923.38;5001238;28;20029;-78
2022/12/03 03:34:09;;;;;;;64.65;23.90;;;;;;;2.07;100.00;101913.69;4985002;28;20542;-77
2022/12/03 03:36:35;;;;;;;62.38;24.08;;;;;;;2.07;100.00;101911.84;4999656;28;20054;-77
2022/12/03 03:39:03;;;;;;;61.15;23.13;;;;;;;2.10;100.00;101916.25;5027532;28;20061;-77
2022/12/03 03:41:29;;;;;;;65.88;23.40;;;;;;;2.15;100.00;101917.06;5021220;28;20477;-77
2022/12/03 03:43:56;;;;;;;72.05;24.98;;;;;;;2.02;100.00;101903.00;4980842;28;20045;-78
2022/12/03 03:46:21;;;;;;;64.53;22.92;;;;;;;2.09;100.00;101907.28;4986140;28;20042;-77
2022/12/03 03:48:48;;;;;;;61.38;23.30;;;;;;;2.16;100.00;101905.31;5021929;28;20426;-77
2022/12/03 03:51:15;;;;;;;60.90;21.40;;;;;;;2.01;100.00;101903.91;5004408;28;20040;-77
2022/12/03 03:53:44;;;;;;;71.72;25.80;;;;;;;1.96;100.00;101901.31;4992547;28;20045;-77
2022/12/03 03:56:10;;;;;;;66.63;25.13;;;;;;;1.94;100.00;101897.78;5016133;28;20025;-77
2022/12/03 03:58:36;;;;;;;65.68;23.02;;;;;;;1.97;100.00;101904.94;4998955;28;20075;-77
2022/12/03 04:01:02;;;;;;;66.80;23.85;;;;;;;2.10;100.00;101908.16;5008356;28;20038;-77
2022/12/03 04:03:28;;;;;;;60.03;22.13;;;;;;;2.00;100.00;101902.13;5023532;28;20061;-77
2022/12/03 04:05:53;;;;;;;63.17;24.80;;;;;;;2.01;100.00;101903.91;5031943;28;20095;-77
2022/12/03 04:08:18;;;;;;;68.13;23.77;;;;;;;2.00;100.00;101900.31;4996746;28;20048;-77
2022/12/03 04:13:28;;;;;;;73.10;26.30;;;;;;;2.04;100.00;101892.16;5007242;28;20065;-78
2022/12/03 04:15:54;;;;;;;63.17;24.25;;;;;;;2.01;100.00;101891.28;5016486;28;20037;-77
2022/12/03 04:23:47;;;;;;;65.50;23.45;;;;;;;1.91;100.00;101896.97;5002358;28;20398;-77
2022/12/03 04:28:57;;;;;;;75.35;25.33;;;;;;;1.99;100.00;101903.94;5030460;28;20042;-77
2022/12/03 04:36:52;;;;;;;61.78;23.75;;;;;;;2.05;100.00;101902.00;5004877;28;20473;-77
2022/12/03 04:39:18;;;;;;;67.90;24.27;;;;;;;1.97;100.00;101896.81;5005346;28;20047;-77
2022/12/03 04:41:43;;;;;;;69.50;24.98;;;;;;;1.92;100.00;101898.72;5007412;28;20038;-77
2022/12/03 04:46:53;;;;;;;68.07;23.33;;;;;;;1.95;100.00;101901.34;5007771;28;20034;-77
2022/12/03 04:49:18;;;;;;;70.43;25.50;;;;;;;1.95;100.00;101894.16;4995715;28;20049;-77
2022/12/03 04:51:44;;;;;;;61.25;21.88;;;;;;;1.98;100.00;101894.09;4996008;28;20171;-77
2022/12/03 04:54:09;;;;;;;70.43;25.30;;;;;;;2.01;100.00;101899.38;5000931;28;20036;-77
2022/12/03 04:56:35;;;;;;;69.38;23.42;;;;;;;1.99;100.00;101898.53;5019277;28;20040;-77
2022/12/03 04:59:00;;;;;;;72.25;26.33;;;;;;;2.03;100.00;101902.03;4994887;28;20489;-77
2022/12/03 05:01:26;;;;;;;69.03;24.63;;;;;;;2.04;100.00;101895.72;4988793;28;20065;-77
2022/12/03 05:03:51;;;;;;;69.32;24.30;;;;;;;1.99;100.00;101898.53;5009626;28;20081;-77
2022/12/03 05:06:16;;;;;;;68.85;25.33;;;;;;;1.97;100.00;101894.13;5020401;28;20030;-77
2022/12/03 05:08:42;;;;;;;63.58;23.23;;;;;;;1.99;100.00;101893.13;4998696;28;20096;-77
2022/12/03 05:11:07;;;;;;;59.75;23.85;;;;;;;2.01;100.00;101888.56;4996451;28;20347;-77
2022/12/03 05:13:33;;;;;;;67.97;25.25;;;;;;;1.94;100.00;101889.69;5003193;28;20030;-77
2022/12/03 05:15:58;;;;;;;68.43;24.98;;;;;;;1.93;100.00;101887.03;4986764;28;20036;-76
2022/12/03 05:18:24;;;;;;;75.00;25.45;;;;;;;1.91;100.00;101881.66;5004537;28;20476;-77
2022/12/03 05:20:50;;;;;;;68.95;24.77;;;;;;;1.98;100.00;101887.78;5014844;28;20115;-76
2022/12/03 05:23:15;;;;;;;71.53;25.80;;;;;;;1.95;100.00;101886.06;4988802;28;20086;-77
2022/12/03 05:25:41;;;;;;;71.93;26.30;;;;;;;1.90;100.00;101879.00;4984839;28;20125;-77
2022/12/03 05:28:06;;;;;;;73.78;25.13;;;;;;;1.96;100.00;101885.13;4985517;28;20046;-77
2022/12/03 05:30:33;;;;;;;78.88;25.60;;;;;;;1.95;100.00;101886.06;5002946;28;20504;-77
2022/12/03 05:32:58;;;;;;;73.05;25.25;;;;;;;1.95;100.00;101877.97;5002054;28;20034;-77
2022/12/03 05:35:24;;;;;;;74.53;24.77;;;;;;;1.86;100.00;101874.63;5006733;28;20394;-77
2022/12/03 05:37:49;;;;;;;67.32;24.13;;;;;;;1.95;100.00;101871.66;5017906;28;20066;-76
2022/12/03 05:40:15;;;;;;;67.13;22.60;;;;;;;1.95;100.00;101871.66;4985324;28;20050;-76
2022/12/03 05:42:53;;;;;;;78.28;25.00;;;;;;;1.85;100.00;101868.31;4985286;28;20037;-77
2022/12/03 05:45:38;;;;;;;66.72;23.17;;;;;;;1.84;100.00;101874.66;4970940;28;20113;-77
2022/12/03 05:48:06;;;;;;;78.38;25.50;;;;;;;1.85;100.00;101860.22;5000382;28;20026;-76
2022/12/03 05:50:34;;;;;;;65.65;22.80;;;;;;;1.89;100.00;101867.31;5005659;28;20057;-76
2022/12/03 05:52:59;;;;;;;71.63;24.30;;;;;;;1.82;100.00;101861.19;5024641;28;20040;-77
2022/12/03 05:55:26;;;;;;;73.75;25.25;;;;;;;1.92;100.00;101866.31;4988502;28;20117;-77
2022/12/03 05:57:51;;;;;;;64.68;21.77;;;;;;;1.89;100.00;101861.91;4999500;28;20152;-77
2022/12/03 06:00:25;;;;;;;69.15;22.88;;;;;;;1.84;100.00;101869.25;4986827;28;20481;-81
2022/12/03 06:02:52;;;;;;;66.55;22.20;;;;;;;1.97;100.00;101862.59;4999047;28;20046;-76
2022/12/03 06:05:18;;;;;;;65.28;23.90;;;;;;;1.96;100.00;101868.03;4985952;28;20025;-77
2022/12/03 06:07:44;;;;;;;61.47;19.95;;;;;;;1.91;100.00;101862.75;5005183;28;20108;-77
2022/12/03 06:10:14;;;;;;;70.80;23.58;;;;;;;1.94;100.00;101859.97;4983760;28;20030;-76
2022/12/03 06:12:39;;;;;;;56.33;20.98;;;;;;;1.96;100.00;101860.81;5003330;28;20033;-76
2022/12/03 06:15:06;;;;;;;61.83;21.40;;;;;;;2.01;100.00;101863.38;4988069;28;20532;-77
2022/12/03 06:17:32;;;;;;;62.20;22.52;;;;;;;1.97;100.00;101856.31;4991314;28;20033;-78
2022/12/03 06:19:58;;;;;;;57.05;21.20;;;;;;;2.00;100.00;101857.13;4984045;28;20053;-77
2022/12/03 06:22:24;;;;;;;61.92;22.10;;;;;;;2.02;100.00;101848.97;5001126;28;20038;-76
2022/12/03 06:24:49;;;;;;;68.70;24.33;;;;;;;1.90;100.00;101858.25;4988575;28;20025;-76
2022/12/03 06:27:15;;;;;;;55.92;21.48;;;;;;;1.90;100.00;101857.38;4989962;28;20061;-76
2022/12/03 06:29:41;;;;;;;66.97;24.02;;;;;;;1.84;100.00;101853.06;5003985;28;20092;-77
2022/12/03 06:32:07;;;;;;;60.88;21.80;;;;;;;1.98;100.00;101858.97;5004608;28;20105;-76
2022/12/03 06:34:32;;;;;;;66.07;23.25;;;;;;;1.84;100.00;101850.34;5019598;28;20037;-77
2022/12/03 06:36:58;;;;;;;66.05;22.98;;;;;;;1.94;100.00;101859.09;5006545;28;20047;-77
2022/12/03 06:39:23;;;;;;;49.85;16.83;;;;;;;1.96;100.00;101858.09;4983276;28;20137;-77
2022/12/03 06:41:49;;;;;;;68.72;23.58;;;;;;;1.97;100.00;101850.91;4976377;28;20046;-76
2022/12/03 06:44:14;;;;;;;66.70;22.38;;;;;;;1.89;100.00;101842.13;4990610;28;20105;-77
2022/12/03 06:46:40;;;;;;;71.47;23.17;;;;;;;1.87;100.00;101850.28;4977870;28;20041;-77
2022/12/03 06:49:08;;;;;;;82.28;24.63;;;;;;;1.94;100.00;101859.09;4995894;28;20169;-77
2022/12/03 06:51:34;;;;;;;68.53;24.00;;;;;;;1.92;100.00;101844.72;5000360;28;20089;-77
2022/12/03 06:54:01;;;;;;;72.43;22.67;;;;;;;1.94;100.00;101849.16;4981176;28;20034;-77
2022/12/03 06:56:26;;;;;;;67.88;23.27;;;;;;;1.91;100.00;101843.84;5009026;28;20046;-77
2022/12/03 06:58:52;;;;;;;69.47;22.75;;;;;;;1.85;100.00;101849.41;5018099;28;20030;-77
2022/12/03 07:01:17;;;;;;;74.20;24.23;;;;;;;1.86;100.00;101842.22;5025074;28;20038;-77
2022/12/03 07:03:43;;;;;;;65.50;23.38;;;;;;;1.94;100.00;101843.78;5027520;28;20069;-77
2022/12/03 07:06:11;;;;;;;75.25;24.75;;;;;;;1.94;100.00;101848.28;5007599;28;20036;-77
2022/12/03 07:08:37;;;;;;;75.97;25.48;;;;;;;1.99;100.00;101843.66;5001062;28;20555;-78
2022/12/03 07:11:02;;;;;;;69.75;22.98;;;;;;;1.91;100.00;101854.66;5002455;28;20033;-78
2022/12/03 07:13:28;;;;;;;71.88;25.38;;;;;;;1.91;100.00;101856.47;5009891;28;20088;-78
2022/12/03 07:15:53;;;;;;;71.85;24.10;;;;;;;1.94;100.00;101859.97;5007050;28;20052;-76
2022/12/03 07:18:19;;;;;;;69.65;23.23;;;;;;;1.91;100.00;101854.66;5006585;28;20104;-77
2022/12/03 07:20:44;;;;;;;76.32;22.60;;;;;;;1.89;100.00;101851.13;5010520;28;20041;-77
2022/12/03 07:23:09;;;;;;;73.32;22.88;;;;;;;1.91;100.00;101853.78;5037164;28;20085;-77
2022/12/03 07:25:36;;;;;;;69.85;22.88;;;;;;;1.92;100.00;101861.84;5015137;28;20508;-77
2022/12/03 07:28:02;;;;;;;68.90;22.52;;;;;;;2.02;100.00;101855.25;5004388;28;20369;-76
2022/12/03 07:30:28;;;;;;;62.33;22.35;;;;;;;1.93;100.00;101857.31;4979953;28;20026;-76
2022/12/03 07:32:53;;;;;;;65.82;22.55;;;;;;;1.94;100.00;101859.09;5000489;28;20029;-78
2022/12/03 07:35:19;;;;;;;74.07;23.73;;;;;;;1.89;100.00;101855.63;4992788;28;20405;-76
2022/12/03 07:37:45;;;;;;;73.00;23.20;;;;;;;1.95;100.00;101856.34;5016155;28;20041;-77
2022/12/03 07:40:11;;;;;;;79.93;23.23;;;;;;;1.93;100.00;101851.91;4982105;28;20056;-77
2022/12/03 07:42:36;;;;;;;76.30;22.17;;;;;;;1.91;100.00;101857.34;4998210;28;20034;-76
2022/12/03 07:45:02;;;;;;;71.70;22.15;;;;;;;1.86;100.00;101859.28;5001117;28;20076;-77
2022/12/03 07:47:28;;;;;;;75.50;22.60;;;;;;;1.97;100.00;101854.50;4980176;28;20156;-77
2022/12/03 07:49:53;;;;;;;54.53;17.63;;;;;;;1.94;100.00;101857.28;5020894;28;20140;-77
2022/12/03 07:52:19;;;;;;;70.72;21.95;;;;;;;1.94;100.00;101857.28;4992143;28;20092;-77
2022/12/03 07:54:44;;;;;;;71.90;20.40;;;;;;;1.91;100.00;101853.78;4994764;28;20049;-77
2022/12/03 07:57:10;;;;;;;74.38;21.45;;;;;;;1.94;100.00;101859.09;4985677;28;20060;-77
2022/12/03 07:59:35;;;;;;;68.05;19.95;;;;;;;2.00;100.00;101858.91;5035255;28;20108;-76
2022/12/03 08:02:01;;;;;;;69.55;21.08;;;;;;;1.94;100.00;101861.78;5009504;28;20116;-77
2022/12/03 08:04:27;;;;;;;63.45;20.15;;;;;;;1.97;100.00;101859.91;5013866;28;20042;-77
2022/12/03 08:06:52;;;;;;;62.72;20.75;;;;;;;2.05;100.00;101851.59;5014198;28;20034;-77
2022/12/03 08:09:18;;;;;;;62.60;21.13;;;;;;;2.02;100.00;101857.06;5017756;28;20389;-77
2022/12/03 08:11:48;;;;;;;65.55;20.27;;;;;;;1.94;100.00;101859.09;5000346;28;20041;-76
2022/12/03 08:14:15;;;;;;;74.25;21.50;;;;;;;1.96;100.00;101862.63;4999779;28;20049;-76
2022/12/03 08:16:43;;;;;;;69.88;20.95;;;;;;;2.04;100.00;101868.72;5030127;28;20239;-76
2022/12/03 08:19:10;;;;;;;67.68;20.83;;;;;;;1.94;100.00;101859.97;5016210;28;20029;-76
2022/12/03 08:21:36;;;;;;;63.45;20.10;;;;;;;1.98;100.00;101867.09;5011626;28;20042;-76
2022/12/03 08:24:14;;;;;;;61.28;19.67;;;;;;;1.97;100.00;101876.09;4993334;28;20033;-76
2022/12/03 08:26:40;;;;;;;62.88;19.10;;;;;;;1.83;100.00;101862.06;5011525;28;20056;-76
2022/12/03 08:29:15;;;;;;;50.50;15.18;;;;;;;2.06;100.00;101874.94;4996219;28;20053;-76
2022/12/03 08:31:43;;;;;;;61.60;18.48;;;;;;;1.90;100.00;101877.16;5014493;28;20411;-77
2022/12/03 08:34:16;;;;;;;56.80;18.05;;;;;;;1.84;100.00;101871.97;5002178;28;20030;-77
2022/12/03 08:36:42;;;;;;;55.97;18.35;;;;;;;1.84;100.00;101874.66;4999111;28;20414;-77
2022/12/03 08:39:34;;;;;;;55.33;19.23;;;;;;;1.79;100.00;101877.47;4998324;28;20050;-77
2022/12/03 08:45:38;;;;;;;58.15;18.75;;;;;;;1.88;100.00;101878.16;5016105;28;20115;-77
2022/12/03 08:48:23;;;;;;;54.38;18.52;;;;;;;1.86;100.00;101875.50;4995603;28;20412;-77
2022/12/03 08:50:49;;;;;;;53.30;18.85;;;;;;;2.01;100.00;101875.06;5015282;28;20430;-76
2022/12/03 08:53:30;;;;;;;61.38;18.48;;;;;;;1.89;100.00;101878.13;4999998;28;20362;-77
2022/12/03 08:56:05;;;;;;;64.13;20.55;;;;;;;1.86;100.00;101872.78;5033186;28;20053;-76
2022/12/03 08:58:42;;;;;;;53.60;16.95;;;;;;;1.99;100.00;101876.06;5009252;28;20514;-77
2022/12/03 09:01:10;;;;;;;66.05;20.42;;;;;;;1.94;100.00;101881.56;4997258;28;20069;-76
2022/12/03 09:03:38;;;;;;;56.42;18.27;;;;;;;1.97;100.00;101880.63;5021552;28;20033;-77
2022/12/03 09:06:04;;;;;;;55.95;20.55;;;;;;;2.03;100.00;101883.13;5018686;28;20112;-76
2022/12/03 09:08:29;;;;;;;53.28;18.98;;;;;;;2.11;100.00;101885.63;5019055;28;20065;-77
2022/12/03 09:10:55;;;;;;;62.10;21.02;;;;;;;1.95;100.00;101877.06;5024885;28;20079;-81
2022/12/03 09:13:21;;;;;;;60.22;19.17;;;;;;;1.97;100.00;101886.03;4985225;28;20060;-77
2022/12/03 09:15:49;;;;;;;53.33;17.60;;;;;;;2.04;100.00;101882.22;5030167;28;20393;-78
2022/12/03 09:18:15;;;;;;;55.45;18.65;;;;;;;2.00;100.00;101880.50;5004585;28;20033;-77
2022/12/03 09:20:40;;;;;;;56.55;19.00;;;;;;;1.99;100.00;101889.56;4997167;28;20397;-77
2022/12/03 09:23:08;;;;;;;61.97;19.25;;;;;;;1.91;100.00;101881.66;4984735;28;20097;-77
2022/12/03 09:25:35;;;;;;;57.03;19.00;;;;;;;1.98;100.00;101877.88;5002070;28;20033;-76
2022/12/03 09:28:01;;;;;;;57.28;19.27;;;;;;;1.98;100.00;101883.28;5002287;28;20030;-75
2022/12/03 09:30:27;;;;;;;58.42;18.38;;;;;;;1.89;100.00;101875.41;4999038;28;20064;-77
2022/12/03 09:32:52;;;;;;;59.38;19.55;;;;;;;1.98;100.00;101883.28;4987073;28;20037;-77
2022/12/03 09:35:18;;;;;;;56.83;19.90;;;;;;;2.02;100.00;101875.97;4978931;28;20057;-78
2022/12/03 09:37:44;;;;;;;54.47;18.55;;;;;;;1.99;100.00;101887.75;5001187;28;20073;-77
2022/12/03 09:40:10;;;;;;;56.08;18.70;;;;;;;2.04;100.00;101879.53;4978298;28;20101;-79
2022/12/03 09:42:36;;;;;;;53.95;17.73;;;;;;;2.12;100.00;101880.19;5014427;28;20534;-79
2022/12/03 09:45:05;;;;;;;69.20;19.58;;;;;;;1.87;100.00;101879.06;5028211;28;20041;-78
2022/12/03 09:47:31;;;;;;;59.00;19.95;;;;;;;1.89;100.00;101875.41;5033831;28;20029;-77
2022/12/03 09:49:57;;;;;;;53.65;18.95;;;;;;;1.86;100.00;101869.22;4999794;28;20033;-78
2022/12/03 09:52:26;;;;;;;47.83;18.33;;;;;;;1.96;100.00;101862.63;4984680;28;20033;-77
2022/12/03 09:54:52;;;;;;;53.88;18.73;;;;;;;2.01;100.00;101869.66;5032015;28;20037;-77
2022/12/03 09:57:18;;;;;;;57.83;18.27;;;;;;;2.01;100.00;101864.28;4990369;28;20548;-79
2022/12/03 09:59:44;;;;;;;56.78;17.95;;;;;;;2.08;100.00;101848.78;4989157;28;20140;-78
2022/12/03 10:02:16;;;;;;;54.25;17.90;;;;;;;2.09;100.00;101861.38;5018362;28;20120;-78
2022/12/03 10:04:42;;;;;;;50.13;17.08;;;;;;;2.07;100.00;101854.25;5008395;28;20038;-77
2022/12/03 10:07:08;;;;;;;53.45;18.10;;;;;;;1.94;100.00;101854.56;4999261;28;20107;-77
2022/12/03 10:09:33;;;;;;;57.63;17.65;;;;;;;1.98;100.00;101856.28;5005754;28;20041;-77
2022/12/03 10:11:59;;;;;;;52.35;16.85;;;;;;;2.05;100.00;101846.19;4982532;28;20140;-76
2022/12/03 10:14:26;;;;;;;52.20;17.52;;;;;;;2.02;100.00;101840.88;4977396;28;20057;-77
2022/12/03 10:16:51;;;;;;;56.22;17.70;;;;;;;1.96;100.00;101847.31;5005510;28;20175;-77
2022/12/03 10:19:24;;;;;;;50.05;18.33;;;;;;;1.99;100.00;101840.94;4968760;28;20120;-77
2022/12/03 10:21:50;;;;;;;;;;;;;;;2.09;100.00;101837.06;5019024;28;20029;-77
2022/12/03 10:24:15;;;;;;;44.47;15.10;;;;;;;2.05;100.00;101850.69;4990947;28;19921;-77
2022/12/03 10:26:42;;;;;;;50.90;17.02;;;;;;;2.01;100.00;101833.69;4991423;28;20053;-77
2022/12/03 10:29:21;;;;;;;46.17;16.70;;;;;;;2.03;100.00;101831.81;5031758;28;20029;-76
2022/12/03 10:32:02;;;;;;;46.33;17.55;;;;;;;1.93;100.00;101819.50;4991479;28;20030;-77
2022/12/03 10:34:34;;;;;;;50.83;17.75;;;;;;;1.95;100.00;101818.53;5039131;28;20100;-77
2022/12/03 10:37:20;;;;;;;54.20;17.00;;;;;;;1.99;100.00;101814.81;5018119;28;20053;-76
2022/12/03 10:39:53;;;;;;;52.55;17.65;;;;;;;2.01;100.00;101807.56;5015833;28;20512;-77
2022/12/03 10:42:19;;;;;;;54.45;16.70;;;;;;;1.93;100.00;101797.91;5003067;28;20080;-77
2022/12/03 10:44:44;;;;;;;54.92;18.70;;;;;;;2.00;100.00;101800.41;5002609;28;20025;-77
2022/12/03 10:47:12;;;;;;;51.70;17.83;;;;;;;1.98;100.00;101790.56;5007128;28;20099;-76
2022/12/03 10:49:40;;;;;;;54.97;19.58;;;;;;;1.93;100.00;101796.06;4982027;28;20111;-77
2022/12/03 10:52:19;;;;;;;54.55;18.40;;;;;;;1.99;100.00;101795.91;4992082;28;20042;-76
2022/12/03 10:54:45;;;;;;;58.13;18.00;;;;;;;2.06;100.00;101791.22;4987866;28;20041;-76
2022/12/03 10:57:11;;;;;;;54.30;19.10;;;;;;;2.05;100.00;101796.66;5002115;28;20041;-76
2022/12/03 10:59:39;;;;;;;59.20;19.88;;;;;;;1.98;100.00;101790.56;5017094;28;20041;-75
2022/12/03 11:02:18;;;;;;;56.95;19.73;;;;;;;1.94;100.00;101789.75;5029600;28;20065;-76
2022/12/03 11:04:43;;;;;;;63.05;19.83;;;;;;;1.96;100.00;101787.88;5000726;28;20405;-77
2022/12/03 11:07:15;;;;;;;54.05;19.40;;;;;;;1.90;100.00;101781.78;4984041;28;20040;-76
2022/12/03 11:09:46;;;;;;;58.03;20.40;;;;;;;1.92;100.00;101788.00;5036759;28;20030;-76
2022/12/03 11:12:21;;;;;;;61.60;22.70;;;;;;;1.99;100.00;101781.53;5018962;28;20079;-76
2022/12/03 11:14:50;;;;;;;66.80;24.25;;;;;;;2.00;100.00;101776.09;5002518;28;20030;-76
2022/12/03 11:17:51;;;;;;;61.78;21.45;;;;;;;2.07;100.00;101778.63;5016826;28;20056;-76
2022/12/03 11:20:22;;;;;;;57.15;21.63;;;;;;;1.96;100.00;101773.50;5017182;28;20060;-77
2022/12/03 11:22:50;;;;;;;55.13;19.10;;;;;;;1.95;100.00;101769.94;5016100;28;20033;-76
2022/12/03 11:25:24;;;;;;;60.30;20.55;;;;;;;2.06;100.00;101774.13;4991089;28;20030;-77
2022/12/03 11:28:12;;;;;;;60.88;21.70;;;;;;;2.02;100.00;101771.53;4999230;28;20029;-76
2022/12/03 11:30:50;;;;;;;63.97;21.20;;;;;;;2.02;100.00;101768.81;5010740;28;20068;-76
2022/12/03 11:33:29;;;;;;;66.80;21.20;;;;;;;1.98;100.00;101760.84;5035391;28;20033;-77
2022/12/03 11:36:03;;;;;;;62.05;21.15;;;;;;;1.96;100.00;101765.41;4995051;28;20156;-76